Time,TemperatureF,DewpointF,PressureIn,WindDirection,WindDirectionDegrees,WindSpeedMPH,WindSpeedGustMPH,Humidity,HourlyPrecipIn,Conditions,Clouds,dailyrainin,SoftwareType,DateUTC
2013-01-16 00:02:00,35.0,29.0,-100.00,West,275,17.0,23.0,77,0.00,,,-99.99,,2013-01-16 06:02:00,
2013-01-16 00:12:00,35.0,29.0,-100.00,West,275,17.0,23.0,77,0.00,,,-99.99,,2013-01-16 06:12:00,
2013-01-16 00:22:00,35.0,29.0,-100.00,West,275,17.0,24.0,78,0.00,,,-99.99,,2013-01-16 06:22:00,
2013-01-16 00:32:00,35.0,29.0,-100.00,West,270,19.0,24.0,77,0.00,,,-99.99,,2013-01-16 06:32:00,
2013-01-16 00:43:00,36.0,29.0,-100.00,West,275,20.0,24.0,76,9.69,,,-99.99,,2013-01-16 06:43:00,
2013-01-16 00:53:00,36.0,29.0,-100.00,West,275,20.0,24.0,76,9.69,,,-99.99,,2013-01-16 06:53:00,
2013-01-16 01:02:00,35.0,29.0,-100.00,West,280,18.0,23.0,76,0.00,,,-99.99,,2013-01-16 07:02:00,
2013-01-16 01:12:00,35.0,29.0,-100.00,West,280,18.0,23.0,76,0.00,,,-99.99,,2013-01-16 07:12:00,
2013-01-16 01:22:00,35.0,29.0,-100.00,WNW,285,17.0,22.0,76,0.00,,,-99.99,,2013-01-16 07:22:00,
2013-01-16 01:32:00,36.0,29.0,-100.00,WNW,290,17.0,23.0,76,7.98,,,-99.99,,2013-01-16 07:32:00,
2013-01-16 01:42:00,35.0,29.0,-100.00,West,280,15.0,21.0,77,0.00,,,-99.99,,2013-01-16 07:42:00,
2013-01-16 01:52:00,35.0,29.0,-100.00,West,280,15.0,21.0,77,0.00,,,-99.99,,2013-01-16 07:52:00,
2013-01-16 02:02:00,35.0,29.0,-100.00,West,280,15.0,18.0,79,0.00,,,-99.99,,2013-01-16 08:02:00,
2013-01-16 02:12:00,35.0,29.0,-100.00,West,280,15.0,18.0,79,0.00,,,-99.99,,2013-01-16 08:12:00,
2013-01-16 02:22:00,35.0,29.0,-100.00,West,280,17.0,21.0,79,8.80,,,-99.99,,2013-01-16 08:22:00,
2013-01-16 02:32:00,35.0,30.0,-100.00,West,280,16.0,23.0,80,10.01,,,-99.99,,2013-01-16 08:32:00,
2013-01-16 02:42:00,35.0,30.0,-100.00,West,280,15.0,21.0,79,10.20,,,-99.99,,2013-01-16 08:42:00,
2013-01-16 02:53:00,35.0,30.0,-100.00,West,280,15.0,21.0,79,10.20,,,-99.99,,2013-01-16 08:53:00,
2013-01-16 03:02:00,35.0,30.0,-100.00,West,270,16.0,19.0,80,0.00,,,-99.99,,2013-01-16 09:02:00,
2013-01-16 03:12:00,35.0,30.0,-100.00,West,270,16.0,19.0,80,0.00,,,-99.99,,2013-01-16 09:12:00,
2013-01-16 03:22:00,35.0,29.0,-100.00,West,270,17.0,21.0,80,0.00,,,-99.99,,2013-01-16 09:22:00,
2013-01-16 03:32:00,35.0,30.0,-100.00,West,260,17.0,21.0,81,0.00,,,-99.99,,2013-01-16 09:32:00,
2013-01-16 03:42:00,35.0,30.0,-100.00,West,260,17.0,21.0,81,0.00,,,-99.99,,2013-01-16 09:42:00,
2013-01-16 03:53:00,35.0,29.0,-100.00,West,260,18.0,21.0,81,0.00,,,-99.99,,2013-01-16 09:53:00,
2013-01-16 04:02:00,34.0,29.0,-100.00,West,265,18.0,21.0,81,0.00,,,-99.99,,2013-01-16 10:02:00,
2013-01-16 04:12:00,34.0,29.0,-100.00,West,265,18.0,21.0,81,0.00,,,-99.99,,2013-01-16 10:12:00,
2013-01-16 04:22:00,35.0,29.0,-100.00,West,265,19.0,22.0,80,0.00,,,-99.99,,2013-01-16 10:22:00,
2013-01-16 04:32:00,34.0,29.0,-100.00,West,265,18.0,24.0,80,0.00,,,-99.99,,2013-01-16 10:32:00,
2013-01-16 04:42:00,34.0,29.0,-100.00,West,265,18.0,24.0,80,0.00,,,-99.99,,2013-01-16 10:42:00,
2013-01-16 04:53:00,34.0,29.0,-100.00,West,265,18.0,24.0,80,0.00,,,-99.99,,2013-01-16 10:53:00,
2013-01-16 05:02:00,34.0,29.0,-100.00,West,270,17.0,21.0,80,0.00,,,-99.99,,2013-01-16 11:02:00,
2013-01-16 05:12:00,34.0,29.0,-100.00,West,270,17.0,21.0,80,0.00,,,-99.99,,2013-01-16 11:12:00,
2013-01-16 05:22:00,34.0,29.0,-100.00,West,270,18.0,22.0,79,0.00,,,-99.99,,2013-01-16 11:22:00,
2013-01-16 05:32:00,34.0,28.0,-100.00,West,275,17.0,22.0,78,0.00,,,-99.99,,2013-01-16 11:32:00,
2013-01-16 05:42:00,34.0,28.0,-100.00,WNW,285,17.0,21.0,78,0.00,,,-99.99,,2013-01-16 11:42:00,
2013-01-16 05:53:00,34.0,28.0,-100.00,WNW,285,17.0,21.0,78,0.00,,,-99.99,,2013-01-16 11:53:00,
2013-01-16 06:03:00,35.0,28.0,-100.00,West,280,16.0,24.0,77,0.00,,,-99.99,,2013-01-16 12:03:00,
2013-01-16 06:13:00,35.0,28.0,-100.00,West,280,16.0,24.0,77,0.00,,,-99.99,,2013-01-16 12:13:00,
2013-01-16 06:22:00,35.0,28.0,-100.00,West,280,17.0,23.0,76,0.00,,,-99.99,,2013-01-16 12:22:00,
2013-01-16 06:33:00,35.0,28.0,-100.00,WNW,290,17.0,23.0,74,0.00,,,-99.99,,2013-01-16 12:33:00,
2013-01-16 06:43:00,35.0,28.0,-100.00,WNW,285,18.0,24.0,74,0.00,,,-99.99,,2013-01-16 12:43:00,
2013-01-16 06:53:00,35.0,28.0,-100.00,WNW,285,18.0,24.0,74,0.00,,,-99.99,,2013-01-16 12:53:00,
2013-01-16 07:03:00,35.0,27.0,-100.00,WNW,290,14.0,22.0,74,0.00,,,-99.99,,2013-01-16 13:03:00,
2013-01-16 07:12:00,35.0,27.0,-100.00,WNW,290,14.0,22.0,74,0.00,,,-99.99,,2013-01-16 13:12:00,
2013-01-16 07:22:00,35.0,28.0,-100.00,WNW,285,15.0,20.0,74,0.00,,,-99.99,,2013-01-16 13:22:00,
2013-01-16 07:33:00,35.0,28.0,-100.00,West,280,14.0,19.0,75,0.00,,,-99.99,,2013-01-16 13:33:00,
2013-01-16 07:43:00,35.0,28.0,-100.00,WNW,285,14.0,18.0,75,0.00,,,-99.99,,2013-01-16 13:43:00,
2013-01-16 07:53:00,35.0,28.0,-100.00,WNW,285,14.0,18.0,75,0.00,,,-99.99,,2013-01-16 13:53:00,
2013-01-16 08:03:00,35.0,27.0,-100.00,NW,305,16.0,24.0,73,0.00,,,-99.99,,2013-01-16 14:03:00,
2013-01-16 08:12:00,35.0,27.0,-100.00,NW,305,16.0,24.0,73,0.00,,,-99.99,,2013-01-16 14:12:00,
2013-01-16 08:23:00,35.0,27.0,-100.00,NW,310,16.0,22.0,74,0.00,,,-99.99,,2013-01-16 14:23:00,
2013-01-16 08:33:00,35.0,28.0,-100.00,WNW,300,15.0,23.0,75,0.00,,,-99.99,,2013-01-16 14:33:00,
2013-01-16 08:43:00,35.0,28.0,-100.00,WNW,300,17.0,22.0,75,0.00,,,-99.99,,2013-01-16 14:43:00,
2013-01-16 08:53:00,35.0,28.0,-100.00,WNW,300,17.0,22.0,75,0.00,,,-99.99,,2013-01-16 14:53:00,
2013-01-16 09:03:00,35.0,28.0,-100.00,NW,315,15.0,21.0,76,0.00,,,-99.99,,2013-01-16 15:03:00,
2013-01-16 09:12:00,35.0,28.0,-100.00,NW,315,15.0,21.0,76,0.00,,,-99.99,,2013-01-16 15:12:00,
2013-01-16 09:23:00,34.0,28.0,-100.00,NW,325,14.0,19.0,78,0.00,,,-99.99,,2013-01-16 15:23:00,
2013-01-16 09:33:00,34.0,29.0,-100.00,NW,315,15.0,22.0,83,11.49,,,-99.99,,2013-01-16 15:33:00,
2013-01-16 09:43:00,33.0,30.0,-100.00,NW,310,14.0,20.0,86,10.90,,,-99.99,,2013-01-16 15:43:00,
2013-01-16 09:53:00,33.0,30.0,-100.00,NW,310,14.0,20.0,86,10.90,,,-99.99,,2013-01-16 15:53:00,
2013-01-16 10:03:00,29.0,26.0,-100.00,North,0,19.0,26.0,87,0.00,,,-99.99,,2013-01-16 16:03:00,
2013-01-16 10:12:00,29.0,26.0,-100.00,North,0,19.0,26.0,87,0.00,,,-99.99,,2013-01-16 16:12:00,
2013-01-16 10:22:00,29.0,25.0,-100.00,North,0,21.0,24.0,84,0.00,,,-99.99,,2013-01-16 16:22:00,
2013-01-16 10:33:00,28.0,23.0,-100.00,North,0,19.0,24.0,82,0.00,,,-99.99,,2013-01-16 16:33:00,
2013-01-16 10:42:00,28.0,23.0,-100.00,North,5,19.0,24.0,82,0.00,,,-99.99,,2013-01-16 16:42:00,
2013-01-16 10:53:00,28.0,23.0,-100.00,North,5,19.0,24.0,82,0.00,,,-99.99,,2013-01-16 16:53:00,
2013-01-16 11:03:00,27.0,24.0,-100.00,North,355,17.0,21.0,86,0.00,,,-99.99,,2013-01-16 17:03:00,
2013-01-16 11:12:00,27.0,24.0,-100.00,North,355,17.0,21.0,86,0.00,,,-99.99,,2013-01-16 17:12:00,
2013-01-16 11:23:00,27.0,23.0,-100.00,North,355,15.0,20.0,86,0.00,,,-99.99,,2013-01-16 17:23:00,
2013-01-16 11:33:00,26.0,22.0,-100.00,North,350,14.0,18.0,84,0.00,,,-99.99,,2013-01-16 17:33:00,
2013-01-16 11:43:00,26.0,23.0,-100.00,North,350,14.0,17.0,85,0.00,,,-99.99,,2013-01-16 17:43:00,
2013-01-16 11:53:00,26.0,23.0,-100.00,North,350,14.0,17.0,85,0.00,,,-99.99,,2013-01-16 17:53:00,
2013-01-16 12:03:00,27.0,22.0,-100.00,NNW,335,14.0,17.0,83,0.00,,,-99.99,,2013-01-16 18:03:00,
2013-01-16 12:13:00,27.0,22.0,-100.00,NNW,335,14.0,17.0,83,0.00,,,-99.99,,2013-01-16 18:13:00,
2013-01-16 12:23:00,27.0,22.0,-100.00,NNW,340,12.0,16.0,81,0.00,,,-99.99,,2013-01-16 18:23:00,
2013-01-16 12:33:00,27.0,21.0,-100.00,NW,325,10.0,13.0,77,0.00,,,-99.99,,2013-01-16 18:33:00,
2013-01-16 12:42:00,27.0,20.0,-100.00,NW,325,12.0,15.0,74,0.00,,,-99.99,,2013-01-16 18:42:00,
2013-01-16 12:53:00,27.0,20.0,-100.00,NW,325,12.0,15.0,74,0.00,,,-99.99,,2013-01-16 18:53:00,
2013-01-16 13:03:00,26.0,19.0,-100.00,NNW,330,11.0,16.0,73,0.00,,,-99.99,,2013-01-16 19:03:00,
2013-01-16 13:12:00,26.0,19.0,-100.00,NNW,330,11.0,16.0,73,0.00,,,-99.99,,2013-01-16 19:12:00,
2013-01-16 13:23:00,26.0,18.0,-100.00,NW,325,14.0,17.0,73,0.00,,,-99.99,,2013-01-16 19:23:00,
2013-01-16 13:33:00,25.0,18.0,-100.00,North,350,12.0,19.0,72,0.00,,,-99.99,,2013-01-16 19:33:00,
2013-01-16 13:43:00,25.0,18.0,-100.00,North,350,16.0,19.0,74,0.00,,,-99.99,,2013-01-16 19:43:00,
2013-01-16 13:53:00,25.0,18.0,-100.00,North,350,16.0,19.0,74,0.00,,,-99.99,,2013-01-16 19:53:00,
2013-01-16 14:03:00,24.0,18.0,-100.00,NNW,340,13.0,17.0,78,0.00,,,-99.99,,2013-01-16 20:03:00,
2013-01-16 14:12:00,24.0,18.0,-100.00,NNW,340,13.0,17.0,78,0.00,,,-99.99,,2013-01-16 20:12:00,
2013-01-16 14:23:00,23.0,17.0,-100.00,North,350,12.0,16.0,78,0.00,,,-99.99,,2013-01-16 20:23:00,
2013-01-16 14:33:00,22.0,17.0,-100.00,North,350,12.0,16.0,79,0.00,,,-99.99,,2013-01-16 20:33:00,
2013-01-16 14:42:00,23.0,17.0,-100.00,NNW,335,10.0,15.0,77,0.00,,,-99.99,,2013-01-16 20:42:00,
2013-01-16 14:53:00,23.0,17.0,-100.00,NNW,335,10.0,15.0,77,0.00,,,-99.99,,2013-01-16 20:53:00,
2013-01-16 15:03:00,22.0,16.0,-100.00,North,350,13.0,15.0,77,0.00,,,-99.99,,2013-01-16 21:03:00,
2013-01-16 15:12:00,22.0,16.0,-100.00,North,350,13.0,15.0,77,0.00,,,-99.99,,2013-01-16 21:12:00,
2013-01-16 15:22:00,22.0,16.0,-100.00,North,355,11.0,15.0,77,0.00,,,-99.99,,2013-01-16 21:22:00,
2013-01-16 15:33:00,22.0,16.0,-100.00,NNW,345,7.0,11.0,77,0.00,,,-99.99,,2013-01-16 21:33:00,
2013-01-16 15:43:00,22.0,16.0,-100.00,North,10,7.0,10.0,76,0.00,,,-99.99,,2013-01-16 21:43:00,
2013-01-16 15:53:00,22.0,16.0,-100.00,North,10,7.0,10.0,76,0.00,,,-99.99,,2013-01-16 21:53:00,
2013-01-16 16:02:00,21.0,15.0,-100.00,North,355,9.0,11.0,75,0.00,,,-99.99,,2013-01-16 22:02:00,
2013-01-16 16:12:00,21.0,15.0,-100.00,North,355,9.0,11.0,75,0.00,,,-99.99,,2013-01-16 22:12:00,
2013-01-16 16:23:00,21.0,15.0,-100.00,North,5,9.0,12.0,75,0.00,,,-99.99,,2013-01-16 22:23:00,
2013-01-16 16:33:00,21.0,13.0,-100.00,NNW,345,7.0,11.0,72,0.00,,,-99.99,,2013-01-16 22:33:00,
2013-01-16 16:43:00,21.0,14.0,-100.00,NNW,345,5.0,9.0,73,0.00,,,-99.99,,2013-01-16 22:43:00,
2013-01-16 16:53:00,21.0,14.0,-100.00,NNW,345,5.0,9.0,73,0.00,,,-99.99,,2013-01-16 22:53:00,
2013-01-16 17:03:00,21.0,14.0,-100.00,North,0,4.0,7.0,74,0.00,,,-99.99,,2013-01-16 23:03:00,
2013-01-16 17:12:00,21.0,14.0,-100.00,North,0,4.0,7.0,74,0.00,,,-99.99,,2013-01-16 23:12:00,
2013-01-16 17:23:00,21.0,14.0,-100.00,North,355,3.0,6.0,75,0.00,,,-99.99,,2013-01-16 23:23:00,
2013-01-16 17:32:00,21.0,14.0,-100.00,North,350,1.0,4.0,75,0.00,,,-99.99,,2013-01-16 23:32:00,
2013-01-16 17:42:00,21.0,14.0,-100.00,North,5,2.0,4.0,74,0.00,,,-99.99,,2013-01-16 23:42:00,
2013-01-16 17:53:00,21.0,14.0,-100.00,North,5,2.0,4.0,74,0.00,,,-99.99,,2013-01-16 23:53:00,
2013-01-16 18:02:00,21.0,14.0,-100.00,NNW,335,4.0,5.0,75,0.00,,,-99.99,,2013-01-17 00:02:00,
2013-01-16 18:12:00,21.0,14.0,-100.00,NNW,335,4.0,5.0,75,0.00,,,-99.99,,2013-01-17 00:12:00,
2013-01-16 18:22:00,21.0,14.0,-100.00,NNW,335,3.0,4.0,75,0.00,,,-99.99,,2013-01-17 00:22:00,
2013-01-16 18:32:00,21.0,14.0,-100.00,SW,230,2.0,4.0,73,0.00,,,-99.99,,2013-01-17 00:32:00,
2013-01-16 18:42:00,21.0,14.0,-100.00,West,270,2.0,4.0,73,0.00,,,-99.99,,2013-01-17 00:42:00,
2013-01-16 18:52:00,21.0,14.0,-100.00,West,270,2.0,4.0,73,0.00,,,-99.99,,2013-01-17 00:52:00,
2013-01-16 19:02:00,21.0,15.0,-100.00,WSW,240,7.0,9.0,75,0.00,,,-99.99,,2013-01-17 01:02:00,
2013-01-16 19:12:00,21.0,15.0,-100.00,WSW,240,7.0,9.0,75,0.00,,,-99.99,,2013-01-17 01:12:00,
2013-01-16 19:22:00,21.0,15.0,-100.00,WSW,240,7.0,9.0,76,0.00,,,-99.99,,2013-01-17 01:22:00,
2013-01-16 19:33:00,21.0,15.0,-100.00,SW,230,10.0,11.0,78,0.00,,,-99.99,,2013-01-17 01:33:00,
2013-01-16 19:42:00,21.0,16.0,-100.00,SW,235,10.0,12.0,78,0.00,,,-99.99,,2013-01-17 01:42:00,
2013-01-16 19:52:00,21.0,16.0,-100.00,SW,235,10.0,12.0,78,0.00,,,-99.99,,2013-01-17 01:52:00,
2013-01-16 20:02:00,21.0,16.0,-100.00,WSW,245,10.0,11.0,78,0.00,,,-99.99,,2013-01-17 02:02:00,
2013-01-16 20:12:00,21.0,16.0,-100.00,WSW,245,10.0,11.0,78,0.00,,,-99.99,,2013-01-17 02:12:00,
2013-01-16 20:22:00,21.0,16.0,-100.00,WSW,250,9.0,11.0,78,0.00,,,-99.99,,2013-01-17 02:22:00,
2013-01-16 20:32:00,21.0,16.0,-100.00,SW,230,11.0,14.0,79,0.00,,,-99.99,,2013-01-17 02:32:00,
2013-01-16 20:42:00,21.0,16.0,-100.00,SW,230,11.0,14.0,79,0.00,,,-99.99,,2013-01-17 02:42:00,
2013-01-16 20:52:00,21.0,16.0,-100.00,SW,230,11.0,14.0,79,0.00,,,-99.99,,2013-01-17 02:52:00,
2013-01-16 21:03:00,22.0,16.0,-100.00,West,260,12.0,16.0,78,0.00,,,-99.99,,2013-01-17 03:03:00,
2013-01-16 21:12:00,22.0,16.0,-100.00,West,260,12.0,16.0,78,0.00,,,-99.99,,2013-01-17 03:12:00,
2013-01-16 21:22:00,22.0,16.0,-100.00,West,260,12.0,16.0,78,0.00,,,-99.99,,2013-01-17 03:22:00,
2013-01-16 21:32:00,22.0,17.0,-100.00,WSW,255,14.0,17.0,79,0.00,,,-99.99,,2013-01-17 03:32:00,
2013-01-16 21:42:00,22.0,17.0,-100.00,West,260,12.0,17.0,79,0.00,,,-99.99,,2013-01-17 03:42:00,
2013-01-16 21:52:00,22.0,17.0,-100.00,West,260,12.0,17.0,79,0.00,,,-99.99,,2013-01-17 03:52:00,
2013-01-16 22:02:00,23.0,17.0,-100.00,West,260,15.0,17.0,79,0.00,,,-99.99,,2013-01-17 04:02:00,
2013-01-16 22:12:00,23.0,17.0,-100.00,West,260,15.0,17.0,79,0.00,,,-99.99,,2013-01-17 04:12:00,
2013-01-16 22:22:00,23.0,18.0,-100.00,WSW,255,12.0,16.0,80,0.00,,,-99.99,,2013-01-17 04:22:00,
2013-01-16 22:32:00,24.0,19.0,-100.00,WSW,255,11.0,14.0,81,0.00,,,-99.99,,2013-01-17 04:32:00,
2013-01-16 22:42:00,24.0,19.0,-100.00,West,260,12.0,16.0,82,0.00,,,-99.99,,2013-01-17 04:42:00,
2013-01-16 22:52:00,24.0,19.0,-100.00,West,260,12.0,16.0,82,0.00,,,-99.99,,2013-01-17 04:52:00,
2013-01-16 23:04:00,24.0,20.0,-100.00,WSW,250,14.0,18.0,83,0.00,,,-99.99,,2013-01-17 05:04:00,
2013-01-16 23:12:00,24.0,20.0,-100.00,WSW,250,14.0,18.0,83,0.00,,,-99.99,,2013-01-17 05:12:00,
2013-01-16 23:22:00,24.0,20.0,-100.00,West,260,11.0,17.0,83,0.00,,,-99.99,,2013-01-17 05:22:00,
2013-01-16 23:33:00,25.0,21.0,-100.00,West,270,12.0,18.0,83,0.00,,,-99.99,,2013-01-17 05:33:00,
2013-01-16 23:42:00,26.0,21.0,-100.00,West,265,11.0,16.0,83,0.00,,,-99.99,,2013-01-17 05:42:00,
2013-01-16 23:53:00,26.0,21.0,-100.00,West,265,11.0,16.0,83,0.00,,,-99.99,,2013-01-17 05:53:00,